sensor_id;sensor_type;location;lat;lon;timestamp;P1;durP1;ratioP1;P2;durP2;ratioP2
61704;SDS011;47627;48.078;11.522;2024-03-02T04:17:33;31.33;;;23.23;;
61704;SDS011;47627;48.078;11.522;2024-03-02T04:20:11;30.05;;;22.75;;
61704;SDS011;47627;48.078;11.522;2024-03-02T04:22:51;31.77;;;24.27;;
61704;SDS011;47627;48.078;11.522;2024-03-02T04:25:16;33.53;;;24.73;;
61704;SDS011;47627;48.078;11.522;2024-03-02T04:27:41;33.40;;;24.30;;
61704;SDS011;47627;48.078;11.522;2024-03-02T04:30:06;32.08;;;24.42;;
61704;SDS011;47627;48.078;11.522;2024-03-02T04:32:32;29.92;;;22.92;;
61704;SDS011;47627;48.078;11.522;2024-03-02T04:34:57;31.58;;;23.95;;
61704;SDS011;47627;48.078;11.522;2024-03-02T04:37:22;36.03;;;26.67;;
61704;SDS011;47627;48.078;11.522;2024-03-02T04:39:47;34.92;;;24.67;;
61704;SDS011;47627;48.078;11.522;2024-03-02T04:42:13;38.13;;;26.80;;
61704;SDS011;47627;48.078;11.522;2024-03-02T04:44:38;33.67;;;23.50;;
61704;SDS011;47627;48.078;11.522;2024-03-02T04:47:04;31.63;;;24.65;;
61704;SDS011;47627;48.078;11.522;2024-03-02T04:49:29;35.00;;;25.48;;
61704;SDS011;47627;48.078;11.522;2024-03-02T04:51:55;34.00;;;25.90;;
61704;SDS011;47627;48.078;11.522;2024-03-02T04:54:21;33.03;;;25.02;;
61704;SDS011;47627;48.078;11.522;2024-03-02T04:56:47;33.65;;;24.58;;
61704;SDS011;47627;48.078;11.522;2024-03-02T04:59:18;32.13;;;25.23;;
61704;SDS011;47627;48.078;11.522;2024-03-02T05:01:43;34.00;;;26.02;;
61704;SDS011;47627;48.078;11.522;2024-03-02T05:04:08;37.20;;;27.70;;
61704;SDS011;47627;48.078;11.522;2024-03-02T05:06:36;32.67;;;25.15;;
61704;SDS011;47627;48.078;11.522;2024-03-02T05:09:02;31.10;;;24.17;;
61704;SDS011;47627;48.078;11.522;2024-03-02T05:11:27;35.90;;;26.83;;
61704;SDS011;47627;48.078;11.522;2024-03-02T05:14:15;37.05;;;25.70;;
61704;SDS011;47627;48.078;11.522;2024-03-02T05:16:40;32.95;;;25.92;;
61704;SDS011;47627;48.078;11.522;2024-03-02T05:19:06;34.35;;;24.95;;
61704;SDS011;47627;48.078;11.522;2024-03-02T05:21:32;34.88;;;25.85;;
61704;SDS011;47627;48.078;11.522;2024-03-02T05:23:58;36.22;;;26.65;;
61704;SDS011;47627;48.078;11.522;2024-03-02T05:26:23;36.90;;;26.92;;
61704;SDS011;47627;48.078;11.522;2024-03-02T05:28:49;35.28;;;25.05;;
61704;SDS011;47627;48.078;11.522;2024-03-02T05:31:17;41.97;;;28.83;;
61704;SDS011;47627;48.078;11.522;2024-03-02T05:33:42;44.30;;;31.17;;
61704;SDS011;47627;48.078;11.522;2024-03-02T05:36:08;39.60;;;29.02;;
61704;SDS011;47627;48.078;11.522;2024-03-02T05:38:36;39.20;;;27.70;;
61704;SDS011;47627;48.078;11.522;2024-03-02T05:41:01;39.05;;;28.83;;
61704;SDS011;47627;48.078;11.522;2024-03-02T05:43:27;39.78;;;29.38;;
61704;SDS011;47627;48.078;11.522;2024-03-02T05:45:52;45.30;;;30.83;;
61704;SDS011;47627;48.078;11.522;2024-03-02T05:48:17;40.75;;;29.38;;
61704;SDS011;47627;48.078;11.522;2024-03-02T05:50:43;42.72;;;30.20;;
61704;SDS011;47627;48.078;11.522;2024-03-02T05:53:08;47.17;;;32.75;;
61704;SDS011;47627;48.078;11.522;2024-03-02T05:55:33;45.03;;;30.58;;
61704;SDS011;47627;48.078;11.522;2024-03-02T05:57:58;42.47;;;30.48;;
61704;SDS011;47627;48.078;11.522;2024-03-02T06:00:42;42.47;;;28.70;;
61704;SDS011;47627;48.078;11.522;2024-03-02T06:03:08;47.28;;;33.03;;
61704;SDS011;47627;48.078;11.522;2024-03-02T06:05:34;45.55;;;31.15;;
61704;SDS011;47627;48.078;11.522;2024-03-02T06:07:59;42.95;;;30.33;;
61704;SDS011;47627;48.078;11.522;2024-03-02T06:10:25;37.58;;;29.00;;
61704;SDS011;47627;48.078;11.522;2024-03-02T06:12:50;45.95;;;31.58;;
61704;SDS011;47627;48.078;11.522;2024-03-02T06:15:15;44.47;;;30.92;;
61704;SDS011;47627;48.078;11.522;2024-03-02T06:17:42;44.80;;;30.60;;
61704;SDS011;47627;48.078;11.522;2024-03-02T06:20:07;44.72;;;30.17;;
61704;SDS011;47627;48.078;11.522;2024-03-02T06:22:33;42.60;;;31.05;;
61704;SDS011;47627;48.078;11.522;2024-03-02T06:24:58;47.92;;;31.30;;
61704;SDS011;47627;48.078;11.522;2024-03-02T06:27:23;47.30;;;33.15;;
61704;SDS011;47627;48.078;11.522;2024-03-02T06:29:49;41.95;;;29.38;;
61704;SDS011;47627;48.078;11.522;2024-03-02T06:32:14;42.25;;;30.50;;
61704;SDS011;47627;48.078;11.522;2024-03-02T06:34:39;40.60;;;29.27;;
61704;SDS011;47627;48.078;11.522;2024-03-02T06:37:04;37.55;;;27.73;;
61704;SDS011;47627;48.078;11.522;2024-03-02T06:39:30;42.78;;;30.30;;
61704;SDS011;47627;48.078;11.522;2024-03-02T06:41:56;56.53;;;37.75;;
61704;SDS011;47627;48.078;11.522;2024-03-02T06:44:21;53.10;;;35.50;;
61704;SDS011;47627;48.078;11.522;2024-03-02T06:46:46;49.40;;;32.60;;
61704;SDS011;47627;48.078;11.522;2024-03-02T06:49:11;50.42;;;33.47;;
61704;SDS011;47627;48.078;11.522;2024-03-02T06:51:37;45.13;;;33.90;;
61704;SDS011;47627;48.078;11.522;2024-03-02T06:54:02;50.03;;;35.58;;
61704;SDS011;47627;48.078;11.522;2024-03-02T06:56:27;65.93;;;43.97;;
61704;SDS011;47627;48.078;11.522;2024-03-02T06:58:52;64.22;;;44.10;;
61704;SDS011;47627;48.078;11.522;2024-03-02T07:01:18;59.28;;;41.17;;
61704;SDS011;47627;48.078;11.522;2024-03-02T07:03:44;61.22;;;42.28;;
61704;SDS011;47627;48.078;11.522;2024-03-02T07:06:09;47.72;;;34.42;;
61704;SDS011;47627;48.078;11.522;2024-03-02T07:08:34;46.50;;;31.38;;
61704;SDS011;47627;48.078;11.522;2024-03-02T07:11:00;41.53;;;29.88;;
61704;SDS011;47627;48.078;11.522;2024-03-02T07:13:25;41.30;;;29.63;;
61704;SDS011;47627;48.078;11.522;2024-03-02T07:15:51;46.33;;;32.50;;
61704;SDS011;47627;48.078;11.522;2024-03-02T07:18:28;45.53;;;31.90;;
61704;SDS011;47627;48.078;11.522;2024-03-02T07:20:54;46.17;;;32.50;;
61704;SDS011;47627;48.078;11.522;2024-03-02T07:23:21;46.67;;;31.08;;
61704;SDS011;47627;48.078;11.522;2024-03-02T07:25:49;42.97;;;29.80;;
61704;SDS011;47627;48.078;11.522;2024-03-02T07:28:15;43.95;;;31.55;;
61704;SDS011;47627;48.078;11.522;2024-03-02T07:30:40;40.67;;;27.23;;
61704;SDS011;47627;48.078;11.522;2024-03-02T07:33:05;38.67;;;27.63;;
61704;SDS011;47627;48.078;11.522;2024-03-02T07:35:31;36.45;;;26.38;;
61704;SDS011;47627;48.078;11.522;2024-03-02T07:37:56;38.55;;;25.75;;
61704;SDS011;47627;48.078;11.522;2024-03-02T07:40:22;36.22;;;24.67;;
61704;SDS011;47627;48.078;11.522;2024-03-02T07:42:47;35.97;;;25.08;;
61704;SDS011;47627;48.078;11.522;2024-03-02T07:45:12;34.28;;;24.20;;
61704;SDS011;47627;48.078;11.522;2024-03-02T07:47:37;36.83;;;26.05;;
61704;SDS011;47627;48.078;11.522;2024-03-02T07:50:03;34.72;;;24.48;;
61704;SDS011;47627;48.078;11.522;2024-03-02T07:52:31;31.27;;;22.85;;
61704;SDS011;47627;48.078;11.522;2024-03-02T07:54:56;24.85;;;18.27;;
61704;SDS011;47627;48.078;11.522;2024-03-02T07:57:21;24.15;;;18.38;;
61704;SDS011;47627;48.078;11.522;2024-03-02T07:59:47;18.08;;;14.23;;
61704;SDS011;47627;48.078;11.522;2024-03-02T08:02:12;17.20;;;13.25;;
61704;SDS011;47627;48.078;11.522;2024-03-02T08:04:37;18.35;;;14.38;;
61704;SDS011;47627;48.078;11.522;2024-03-02T08:07:03;18.95;;;15.05;;
61704;SDS011;47627;48.078;11.522;2024-03-02T08:09:28;18.88;;;15.05;;
61704;SDS011;47627;48.078;11.522;2024-03-02T08:11:53;18.83;;;14.23;;
61704;SDS011;47627;48.078;11.522;2024-03-02T08:14:19;17.92;;;13.50;;
61704;SDS011;47627;48.078;11.522;2024-03-02T08:16:44;17.13;;;14.32;;
61704;SDS011;47627;48.078;11.522;2024-03-02T08:19:10;14.68;;;12.30;;
61704;SDS011;47627;48.078;11.522;2024-03-02T08:21:35;15.82;;;13.35;;
61704;SDS011;47627;48.078;11.522;2024-03-02T08:24:01;15.20;;;11.55;;
61704;SDS011;47627;48.078;11.522;2024-03-02T08:26:27;14.82;;;11.52;;
61704;SDS011;47627;48.078;11.522;2024-03-02T08:28:54;14.18;;;12.13;;
61704;SDS011;47627;48.078;11.522;2024-03-02T08:31:19;12.23;;;10.43;;
61704;SDS011;47627;48.078;11.522;2024-03-02T08:33:44;11.10;;;9.52;;
61704;SDS011;47627;48.078;11.522;2024-03-02T08:36:10;12.73;;;10.23;;
61704;SDS011;47627;48.078;11.522;2024-03-02T08:38:35;15.60;;;10.65;;
61704;SDS011;47627;48.078;11.522;2024-03-02T08:41:00;13.75;;;11.20;;
61704;SDS011;47627;48.078;11.522;2024-03-02T08:43:25;13.52;;;10.50;;
61704;SDS011;47627;48.078;11.522;2024-03-02T08:45:51;13.13;;;10.30;;
61704;SDS011;47627;48.078;11.522;2024-03-02T08:48:16;11.88;;;9.50;;
61704;SDS011;47627;48.078;11.522;2024-03-02T08:50:41;12.05;;;10.23;;
61704;SDS011;47627;48.078;11.522;2024-03-02T08:53:06;11.05;;;9.20;;
61704;SDS011;47627;48.078;11.522;2024-03-02T08:55:32;11.77;;;10.57;;
61704;SDS011;47627;48.078;11.522;2024-03-02T08:57:57;15.45;;;12.57;;
61704;SDS011;47627;48.078;11.522;2024-03-02T09:00:23;13.40;;;11.38;;
61704;SDS011;47627;48.078;11.522;2024-03-02T09:02:48;12.13;;;10.32;;
61704;SDS011;47627;48.078;11.522;2024-03-02T09:05:13;9.68;;;8.68;;
61704;SDS011;47627;48.078;11.522;2024-03-02T09:07:39;10.93;;;9.25;;
61704;SDS011;47627;48.078;11.522;2024-03-02T09:10:05;10.50;;;8.80;;
61704;SDS011;47627;48.078;11.522;2024-03-02T09:12:30;11.75;;;9.70;;
61704;SDS011;47627;48.078;11.522;2024-03-02T09:14:55;11.23;;;9.20;;
61704;SDS011;47627;48.078;11.522;2024-03-02T09:17:20;11.55;;;9.80;;
61704;SDS011;47627;48.078;11.522;2024-03-02T09:19:46;12.43;;;9.45;;
61704;SDS011;47627;48.078;11.522;2024-03-02T09:22:11;10.13;;;8.85;;
61704;SDS011;47627;48.078;11.522;2024-03-02T09:24:36;10.63;;;9.23;;
61704;SDS011;47627;48.078;11.522;2024-03-02T09:27:02;10.73;;;8.32;;
61704;SDS011;47627;48.078;11.522;2024-03-02T09:29:27;11.55;;;9.00;;
61704;SDS011;47627;48.078;11.522;2024-03-02T09:31:52;10.82;;;9.07;;
61704;SDS011;47627;48.078;11.522;2024-03-02T09:34:18;11.20;;;8.73;;
61704;SDS011;47627;48.078;11.522;2024-03-02T09:36:43;10.93;;;8.80;;
61704;SDS011;47627;48.078;11.522;2024-03-02T09:39:08;11.20;;;9.15;;
61704;SDS011;47627;48.078;11.522;2024-03-02T09:41:37;10.32;;;8.55;;
61704;SDS011;47627;48.078;11.522;2024-03-02T09:44:02;11.43;;;9.07;;
61704;SDS011;47627;48.078;11.522;2024-03-02T09:46:28;11.38;;;8.98;;
61704;SDS011;47627;48.078;11.522;2024-03-02T09:48:54;11.73;;;9.90;;
61704;SDS011;47627;48.078;11.522;2024-03-02T09:51:20;13.40;;;11.15;;
61704;SDS011;47627;48.078;11.522;2024-03-02T09:53:45;13.57;;;11.00;;
61704;SDS011;47627;48.078;11.522;2024-03-02T09:56:11;11.88;;;10.25;;
61704;SDS011;47627;48.078;11.522;2024-03-02T09:58:38;9.63;;;8.63;;
61704;SDS011;47627;48.078;11.522;2024-03-02T10:01:05;10.45;;;8.75;;
61704;SDS011;47627;48.078;11.522;2024-03-02T10:03:31;11.32;;;9.98;;
61704;SDS011;47627;48.078;11.522;2024-03-02T10:06:17;12.30;;;9.57;;
61704;SDS011;47627;48.078;11.522;2024-03-02T10:08:43;10.38;;;9.18;;
61704;SDS011;47627;48.078;11.522;2024-03-02T10:11:09;11.63;;;8.63;;
61704;SDS011;47627;48.078;11.522;2024-03-02T10:13:34;11.60;;;9.50;;
61704;SDS011;47627;48.078;11.522;2024-03-02T10:15:59;10.90;;;8.68;;
61704;SDS011;47627;48.078;11.522;2024-03-02T10:18:36;9.35;;;7.57;;
61704;SDS011;47627;48.078;11.522;2024-03-02T10:21:14;9.18;;;7.13;;
61704;SDS011;47627;48.078;11.522;2024-03-02T10:23:40;7.72;;;6.03;;
61704;SDS011;47627;48.078;11.522;2024-03-02T10:26:17;5.97;;;5.28;;
61704;SDS011;47627;48.078;11.522;2024-03-02T10:28:46;6.18;;;5.35;;
61704;SDS011;47627;48.078;11.522;2024-03-02T10:31:12;6.65;;;5.68;;
61704;SDS011;47627;48.078;11.522;2024-03-02T10:33:38;8.30;;;6.40;;
61704;SDS011;47627;48.078;11.522;2024-03-02T10:36:04;7.63;;;6.43;;
61704;SDS011;47627;48.078;11.522;2024-03-02T10:38:30;8.18;;;6.60;;
61704;SDS011;47627;48.078;11.522;2024-03-02T10:40:55;9.05;;;7.13;;
61704;SDS011;47627;48.078;11.522;2024-03-02T10:43:21;9.77;;;7.30;;
61704;SDS011;47627;48.078;11.522;2024-03-02T10:45:47;8.48;;;6.85;;
61704;SDS011;47627;48.078;11.522;2024-03-02T10:48:14;10.40;;;7.28;;
61704;SDS011;47627;48.078;11.522;2024-03-02T10:50:39;9.73;;;7.03;;
61704;SDS011;47627;48.078;11.522;2024-03-02T10:53:04;8.13;;;7.20;;
61704;SDS011;47627;48.078;11.522;2024-03-02T10:55:31;8.43;;;7.07;;
61704;SDS011;47627;48.078;11.522;2024-03-02T10:57:56;7.93;;;6.55;;
61704;SDS011;47627;48.078;11.522;2024-03-02T11:00:26;9.65;;;6.15;;
61704;SDS011;47627;48.078;11.522;2024-03-02T11:02:56;10.05;;;8.00;;
61704;SDS011;47627;48.078;11.522;2024-03-02T11:05:28;9.00;;;7.15;;
61704;SDS011;47627;48.078;11.522;2024-03-02T11:07:57;9.13;;;7.70;;
61704;SDS011;47627;48.078;11.522;2024-03-02T11:10:22;11.68;;;8.60;;
61704;SDS011;47627;48.078;11.522;2024-03-02T11:12:51;14.68;;;9.35;;
61704;SDS011;47627;48.078;11.522;2024-03-02T11:15:18;12.93;;;9.68;;
61704;SDS011;47627;48.078;11.522;2024-03-02T11:17:46;12.45;;;9.23;;
61704;SDS011;47627;48.078;11.522;2024-03-02T11:20:12;13.93;;;9.00;;
61704;SDS011;47627;48.078;11.522;2024-03-02T11:22:37;11.52;;;7.88;;
61704;SDS011;47627;48.078;11.522;2024-03-02T11:25:03;11.77;;;8.68;;
61704;SDS011;47627;48.078;11.522;2024-03-02T11:32:56;14.20;;;9.52;;
61704;SDS011;47627;48.078;11.522;2024-03-02T11:35:21;12.60;;;9.52;;
61704;SDS011;47627;48.078;11.522;2024-03-02T11:37:48;10.20;;;7.65;;
61704;SDS011;47627;48.078;11.522;2024-03-02T11:40:14;14.05;;;9.07;;
61704;SDS011;47627;48.078;11.522;2024-03-02T11:42:39;14.23;;;8.60;;
61704;SDS011;47627;48.078;11.522;2024-03-02T11:45:05;12.30;;;9.13;;
61704;SDS011;47627;48.078;11.522;2024-03-02T11:47:33;16.35;;;9.18;;
61704;SDS011;47627;48.078;11.522;2024-03-02T11:49:58;13.52;;;8.18;;
61704;SDS011;47627;48.078;11.522;2024-03-02T11:52:24;14.48;;;8.38;;
61704;SDS011;47627;48.078;11.522;2024-03-02T11:54:50;12.23;;;7.85;;
61704;SDS011;47627;48.078;11.522;2024-03-02T11:57:20;13.15;;;7.85;;
61704;SDS011;47627;48.078;11.522;2024-03-02T11:59:47;10.00;;;7.28;;
61704;SDS011;47627;48.078;11.522;2024-03-02T12:02:16;12.00;;;8.38;;
61704;SDS011;47627;48.078;11.522;2024-03-02T12:04:44;12.30;;;8.48;;
61704;SDS011;47627;48.078;11.522;2024-03-02T12:07:10;9.20;;;7.43;;
61704;SDS011;47627;48.078;11.522;2024-03-02T12:09:35;12.20;;;8.18;;
61704;SDS011;47627;48.078;11.522;2024-03-02T12:12:04;11.07;;;7.93;;
61704;SDS011;47627;48.078;11.522;2024-03-02T12:14:30;15.38;;;8.23;;
61704;SDS011;47627;48.078;11.522;2024-03-02T12:16:55;13.68;;;8.45;;
61704;SDS011;47627;48.078;11.522;2024-03-02T12:19:23;13.70;;;8.80;;
61704;SDS011;47627;48.078;11.522;2024-03-02T12:21:48;12.70;;;7.47;;
61704;SDS011;47627;48.078;11.522;2024-03-02T12:24:14;9.32;;;6.85;;
61704;SDS011;47627;48.078;11.522;2024-03-02T12:26:39;11.00;;;6.93;;
61704;SDS011;47627;48.078;11.522;2024-03-02T12:29:05;9.90;;;6.35;;
61704;SDS011;47627;48.078;11.522;2024-03-02T12:31:30;8.75;;;6.68;;
61704;SDS011;47627;48.078;11.522;2024-03-02T12:33:56;11.52;;;7.35;;
61704;SDS011;47627;48.078;11.522;2024-03-02T12:36:22;11.55;;;6.63;;
61704;SDS011;47627;48.078;11.522;2024-03-02T12:38:47;9.35;;;6.30;;
61704;SDS011;47627;48.078;11.522;2024-03-02T12:41:16;15.23;;;8.77;;
61704;SDS011;47627;48.078;11.522;2024-03-02T12:43:41;11.88;;;8.57;;
61704;SDS011;47627;48.078;11.522;2024-03-02T12:46:06;13.43;;;9.32;;
61704;SDS011;47627;48.078;11.522;2024-03-02T12:48:32;11.60;;;8.32;;
61704;SDS011;47627;48.078;11.522;2024-03-02T12:50:58;17.15;;;11.55;;
61704;SDS011;47627;48.078;11.522;2024-03-02T12:53:23;15.70;;;11.10;;
61704;SDS011;47627;48.078;11.522;2024-03-02T12:55:49;11.95;;;8.55;;
61704;SDS011;47627;48.078;11.522;2024-03-02T12:58:21;16.17;;;8.52;;
61704;SDS011;47627;48.078;11.522;2024-03-02T13:00:47;12.52;;;8.07;;
61704;SDS011;47627;48.078;11.522;2024-03-02T13:03:12;12.48;;;7.82;;
61704;SDS011;47627;48.078;11.522;2024-03-02T13:05:38;12.07;;;8.02;;
61704;SDS011;47627;48.078;11.522;2024-03-02T13:08:04;10.30;;;6.82;;
61704;SDS011;47627;48.078;11.522;2024-03-02T13:10:32;12.15;;;6.82;;
61704;SDS011;47627;48.078;11.522;2024-03-02T13:12:57;11.88;;;6.07;;
61704;SDS011;47627;48.078;11.522;2024-03-02T13:15:22;12.35;;;6.53;;
61704;SDS011;47627;48.078;11.522;2024-03-02T13:17:48;8.35;;;6.47;;
61704;SDS011;47627;48.078;11.522;2024-03-02T13:20:14;11.05;;;6.22;;
61704;SDS011;47627;48.078;11.522;2024-03-02T13:22:39;8.63;;;6.45;;
61704;SDS011;47627;48.078;11.522;2024-03-02T13:25:05;9.80;;;6.38;;
61704;SDS011;47627;48.078;11.522;2024-03-02T13:27:30;8.93;;;5.80;;
61704;SDS011;47627;48.078;11.522;2024-03-02T13:29:57;8.45;;;5.65;;
61704;SDS011;47627;48.078;11.522;2024-03-02T13:32:22;9.70;;;5.57;;
61704;SDS011;47627;48.078;11.522;2024-03-02T13:34:49;7.78;;;5.20;;
61704;SDS011;47627;48.078;11.522;2024-03-02T13:37:14;7.43;;;4.93;;
61704;SDS011;47627;48.078;11.522;2024-03-02T13:39:39;8.80;;;5.75;;
61704;SDS011;47627;48.078;11.522;2024-03-02T13:42:09;10.68;;;5.40;;
61704;SDS011;47627;48.078;11.522;2024-03-02T13:44:35;6.47;;;4.60;;
61704;SDS011;47627;48.078;11.522;2024-03-02T13:47:01;7.55;;;5.22;;
61704;SDS011;47627;48.078;11.522;2024-03-02T13:49:26;4.97;;;4.03;;
61704;SDS011;47627;48.078;11.522;2024-03-02T13:51:59;4.25;;;2.97;;
61704;SDS011;47627;48.078;11.522;2024-03-02T13:54:25;6.30;;;3.63;;
61704;SDS011;47627;48.078;11.522;2024-03-02T13:56:51;9.57;;;4.20;;
61704;SDS011;47627;48.078;11.522;2024-03-02T13:59:17;6.80;;;4.38;;
61704;SDS011;47627;48.078;11.522;2024-03-02T14:01:42;6.20;;;4.55;;
61704;SDS011;47627;48.078;11.522;2024-03-02T14:04:07;8.63;;;5.28;;
61704;SDS011;47627;48.078;11.522;2024-03-02T14:06:32;8.57;;;6.88;;
61704;SDS011;47627;48.078;11.522;2024-03-02T14:08:58;9.93;;;7.45;;
61704;SDS011;47627;48.078;11.522;2024-03-02T14:11:23;13.15;;;8.88;;
61704;SDS011;47627;48.078;11.522;2024-03-02T14:13:48;12.00;;;9.65;;
61704;SDS011;47627;48.078;11.522;2024-03-02T14:16:18;11.63;;;8.93;;
61704;SDS011;47627;48.078;11.522;2024-03-02T14:18:44;11.75;;;8.00;;
61704;SDS011;47627;48.078;11.522;2024-03-02T14:21:09;10.27;;;7.82;;
61704;SDS011;47627;48.078;11.522;2024-03-02T14:23:34;10.88;;;7.78;;
61704;SDS011;47627;48.078;11.522;2024-03-02T14:25:59;9.13;;;7.32;;
61704;SDS011;47627;48.078;11.522;2024-03-02T14:28:25;13.30;;;7.78;;
61704;SDS011;47627;48.078;11.522;2024-03-02T14:30:50;10.50;;;7.03;;
61704;SDS011;47627;48.078;11.522;2024-03-02T14:33:15;8.38;;;5.63;;
61704;SDS011;47627;48.078;11.522;2024-03-02T14:35:41;6.82;;;5.35;;
61704;SDS011;47627;48.078;11.522;2024-03-02T14:38:07;7.13;;;4.95;;
61704;SDS011;47627;48.078;11.522;2024-03-02T14:40:32;6.03;;;5.18;;
61704;SDS011;47627;48.078;11.522;2024-03-02T14:42:58;7.45;;;5.90;;
61704;SDS011;47627;48.078;11.522;2024-03-02T14:45:23;6.68;;;5.28;;
61704;SDS011;47627;48.078;11.522;2024-03-02T14:47:49;12.30;;;6.65;;
61704;SDS011;47627;48.078;11.522;2024-03-02T14:50:14;10.60;;;6.97;;
61704;SDS011;47627;48.078;11.522;2024-03-02T14:52:41;7.80;;;6.50;;
61704;SDS011;47627;48.078;11.522;2024-03-02T14:55:06;9.07;;;6.00;;
61704;SDS011;47627;48.078;11.522;2024-03-02T14:57:33;9.35;;;6.53;;
61704;SDS011;47627;48.078;11.522;2024-03-02T14:59:58;10.10;;;6.00;;
61704;SDS011;47627;48.078;11.522;2024-03-02T15:02:23;9.18;;;6.60;;
61704;SDS011;47627;48.078;11.522;2024-03-02T15:04:49;10.88;;;6.32;;
61704;SDS011;47627;48.078;11.522;2024-03-02T15:07:14;8.73;;;6.03;;
61704;SDS011;47627;48.078;11.522;2024-03-02T15:09:40;9.95;;;6.32;;
61704;SDS011;47627;48.078;11.522;2024-03-02T15:12:05;8.30;;;6.40;;
61704;SDS011;47627;48.078;11.522;2024-03-02T15:14:31;7.53;;;6.07;;
61704;SDS011;47627;48.078;11.522;2024-03-02T15:16:56;8.80;;;6.18;;
61704;SDS011;47627;48.078;11.522;2024-03-02T15:19:22;8.68;;;5.88;;
61704;SDS011;47627;48.078;11.522;2024-03-02T15:21:47;7.25;;;5.53;;
61704;SDS011;47627;48.078;11.522;2024-03-02T15:24:13;7.35;;;5.85;;
61704;SDS011;47627;48.078;11.522;2024-03-02T15:26:41;8.55;;;6.43;;
61704;SDS011;47627;48.078;11.522;2024-03-02T15:29:06;12.07;;;7.88;;
61704;SDS011;47627;48.078;11.522;2024-03-02T15:31:31;9.30;;;7.05;;
61704;SDS011;47627;48.078;11.522;2024-03-02T15:33:56;11.13;;;7.32;;
61704;SDS011;47627;48.078;11.522;2024-03-02T15:36:23;12.65;;;8.60;;
61704;SDS011;47627;48.078;11.522;2024-03-02T15:38:49;10.77;;;8.60;;
61704;SDS011;47627;48.078;11.522;2024-03-02T15:41:14;12.82;;;8.85;;
61704;SDS011;47627;48.078;11.522;2024-03-02T15:43:40;11.80;;;8.93;;
61704;SDS011;47627;48.078;11.522;2024-03-02T15:46:07;14.57;;;10.05;;
61704;SDS011;47627;48.078;11.522;2024-03-02T15:48:33;11.75;;;9.50;;
61704;SDS011;47627;48.078;11.522;2024-03-02T15:50:58;16.77;;;9.93;;
61704;SDS011;47627;48.078;11.522;2024-03-02T15:53:23;14.05;;;10.95;;
61704;SDS011;47627;48.078;11.522;2024-03-02T15:55:48;15.45;;;10.90;;
61704;SDS011;47627;48.078;11.522;2024-03-02T15:58:14;18.45;;;13.00;;
61704;SDS011;47627;48.078;11.522;2024-03-02T16:00:39;15.57;;;12.00;;
61704;SDS011;47627;48.078;11.522;2024-03-02T16:03:05;18.40;;;12.98;;
61704;SDS011;47627;48.078;11.522;2024-03-02T16:05:30;17.38;;;13.00;;
61704;SDS011;47627;48.078;11.522;2024-03-02T16:07:55;19.00;;;14.20;;
61704;SDS011;47627;48.078;11.522;2024-03-02T16:10:20;19.02;;;14.05;;
61704;SDS011;47627;48.078;11.522;2024-03-02T16:12:45;19.17;;;14.30;;
61704;SDS011;47627;48.078;11.522;2024-03-02T16:15:12;19.08;;;14.07;;
61704;SDS011;47627;48.078;11.522;2024-03-02T16:17:37;21.83;;;15.18;;
61704;SDS011;47627;48.078;11.522;2024-03-02T16:20:03;22.25;;;14.98;;
61704;SDS011;47627;48.078;11.522;2024-03-02T16:22:31;21.25;;;14.90;;
61704;SDS011;47627;48.078;11.522;2024-03-02T16:24:56;18.83;;;15.23;;
61704;SDS011;47627;48.078;11.522;2024-03-02T16:27:22;24.65;;;16.20;;
61704;SDS011;47627;48.078;11.522;2024-03-02T16:29:47;24.25;;;16.15;;
61704;SDS011;47627;48.078;11.522;2024-03-02T16:32:12;18.75;;;14.43;;
61704;SDS011;47627;48.078;11.522;2024-03-02T16:34:37;22.98;;;15.52;;
61704;SDS011;47627;48.078;11.522;2024-03-02T16:37:03;21.33;;;15.00;;
61704;SDS011;47627;48.078;11.522;2024-03-02T16:39:29;23.27;;;16.15;;
61704;SDS011;47627;48.078;11.522;2024-03-02T16:41:54;24.08;;;16.10;;
61704;SDS011;47627;48.078;11.522;2024-03-02T16:44:20;25.92;;;18.50;;
61704;SDS011;47627;48.078;11.522;2024-03-02T16:46:45;22.30;;;16.42;;
61704;SDS011;47627;48.078;11.522;2024-03-02T16:49:12;23.02;;;16.73;;
61704;SDS011;47627;48.078;11.522;2024-03-02T16:51:40;23.42;;;16.88;;
61704;SDS011;47627;48.078;11.522;2024-03-02T16:54:06;23.20;;;17.05;;
61704;SDS011;47627;48.078;11.522;2024-03-02T16:56:38;24.42;;;16.08;;
61704;SDS011;47627;48.078;11.522;2024-03-02T16:59:03;23.48;;;15.77;;
61704;SDS011;47627;48.078;11.522;2024-03-02T17:01:28;25.20;;;16.55;;
61704;SDS011;47627;48.078;11.522;2024-03-02T17:03:53;28.88;;;18.05;;
61704;SDS011;47627;48.078;11.522;2024-03-02T17:06:19;29.23;;;18.98;;
61704;SDS011;47627;48.078;11.522;2024-03-02T17:08:44;28.08;;;19.10;;
61704;SDS011;47627;48.078;11.522;2024-03-02T17:11:10;29.75;;;19.67;;
61704;SDS011;47627;48.078;11.522;2024-03-02T17:13:35;28.30;;;19.40;;
61704;SDS011;47627;48.078;11.522;2024-03-02T17:16:00;30.60;;;21.50;;
61704;SDS011;47627;48.078;11.522;2024-03-02T17:18:25;29.42;;;19.88;;
61704;SDS011;47627;48.078;11.522;2024-03-02T17:20:50;32.10;;;20.83;;
61704;SDS011;47627;48.078;11.522;2024-03-02T17:23:16;30.52;;;19.77;;
61704;SDS011;47627;48.078;11.522;2024-03-02T17:25:41;31.92;;;20.98;;
61704;SDS011;47627;48.078;11.522;2024-03-02T17:28:28;35.28;;;21.90;;
61704;SDS011;47627;48.078;11.522;2024-03-02T17:30:54;34.10;;;21.02;;
61704;SDS011;47627;48.078;11.522;2024-03-02T17:33:19;30.48;;;21.10;;
61704;SDS011;47627;48.078;11.522;2024-03-02T17:35:44;32.92;;;21.25;;
61704;SDS011;47627;48.078;11.522;2024-03-02T17:38:12;34.15;;;21.92;;
61704;SDS011;47627;48.078;11.522;2024-03-02T17:40:37;30.58;;;20.95;;
61704;SDS011;47627;48.078;11.522;2024-03-02T17:43:03;37.42;;;25.23;;
61704;SDS011;47627;48.078;11.522;2024-03-02T17:45:28;35.08;;;23.77;;
61704;SDS011;47627;48.078;11.522;2024-03-02T17:47:54;35.42;;;22.75;;
61704;SDS011;47627;48.078;11.522;2024-03-02T17:50:19;38.05;;;23.75;;
61704;SDS011;47627;48.078;11.522;2024-03-02T17:52:44;37.50;;;23.00;;
61704;SDS011;47627;48.078;11.522;2024-03-02T17:55:09;38.03;;;23.80;;
61704;SDS011;47627;48.078;11.522;2024-03-02T17:57:35;38.90;;;24.60;;
61704;SDS011;47627;48.078;11.522;2024-03-02T18:00:00;38.30;;;25.10;;
61704;SDS011;47627;48.078;11.522;2024-03-02T18:02:25;40.97;;;26.17;;
61704;SDS011;47627;48.078;11.522;2024-03-02T18:04:52;39.15;;;24.85;;
61704;SDS011;47627;48.078;11.522;2024-03-02T18:07:17;45.53;;;26.67;;
61704;SDS011;47627;48.078;11.522;2024-03-02T18:09:42;44.13;;;26.55;;
61704;SDS011;47627;48.078;11.522;2024-03-02T18:12:07;41.08;;;26.60;;
61704;SDS011;47627;48.078;11.522;2024-03-02T18:14:33;43.75;;;27.45;;
61704;SDS011;47627;48.078;11.522;2024-03-02T18:16:58;44.25;;;27.10;;
61704;SDS011;47627;48.078;11.522;2024-03-02T18:19:24;46.10;;;28.20;;
61704;SDS011;47627;48.078;11.522;2024-03-02T18:21:49;44.05;;;27.25;;
61704;SDS011;47627;48.078;11.522;2024-03-02T18:24:14;44.17;;;28.05;;
61704;SDS011;47627;48.078;11.522;2024-03-02T18:26:39;45.15;;;28.23;;
61704;SDS011;47627;48.078;11.522;2024-03-02T18:29:06;44.58;;;28.98;;
61704;SDS011;47627;48.078;11.522;2024-03-02T18:31:33;50.95;;;30.63;;